createdAt,value
2023-03-06T00:00:15.774Z,80.41
2023-03-06T00:02:43.227Z,82.03
2023-03-06T00:05:10.725Z,80.78
2023-03-06T00:07:38.195Z,81.27
2023-03-06T00:10:08.214Z,81.59
2023-03-06T00:12:35.622Z,81.38
2023-03-06T00:15:05.536Z,81.63
2023-03-06T00:17:33.208Z,80.75
2023-03-06T00:20:00.759Z,80.52
2023-03-06T00:22:28.235Z,81.03
2023-03-06T00:24:55.687Z,81.03
2023-03-06T00:27:26.165Z,81.33
2023-03-06T00:29:56.906Z,80.68
2023-03-06T00:32:25.460Z,80.96
2023-03-06T00:34:53.735Z,81.39
2023-03-06T00:37:21.707Z,82.57
2023-03-06T00:39:50.047Z,81.83
2023-03-06T00:42:17.646Z,81.35
2023-03-06T00:44:46.956Z,81.57
2023-03-06T00:47:17.038Z,82.68
2023-03-06T00:49:45.002Z,82.43
2023-03-06T00:52:12.526Z,81.20
2023-03-06T00:54:39.996Z,82.43
2023-03-06T00:57:07.833Z,81.77
2023-03-06T00:59:35.679Z,81.24
2023-03-06T01:02:04.681Z,80.96
2023-03-06T01:04:32.041Z,81.12
2023-03-06T01:06:59.497Z,81.86
2023-03-06T01:09:27.028Z,81.55
2023-03-06T01:11:54.608Z,81.29
2023-03-06T01:14:22.321Z,81.84
2023-03-06T01:16:50.196Z,81.49
2023-03-06T01:19:19.215Z,81.57
2023-03-06T01:21:46.598Z,81.36
2023-03-06T01:24:14.109Z,81.30
2023-03-06T01:26:41.574Z,81.24
2023-03-06T01:29:09.124Z,81.68
2023-03-06T01:31:36.603Z,81.04
2023-03-06T01:34:04.090Z,81.79
2023-03-06T01:36:32.973Z,81.52
2023-03-06T01:39:00.452Z,81.26
2023-03-06T01:41:27.920Z,81.24
2023-03-06T01:43:55.364Z,81.50
2023-03-06T01:46:41.983Z,80.93
2023-03-06T01:49:17.407Z,80.90
2023-03-06T01:51:51.540Z,81.27
2023-03-06T01:54:23.772Z,81.64
2023-03-06T01:56:54.500Z,82.09
2023-03-06T01:59:23.420Z,82.47
2023-03-06T02:01:51.819Z,82.24
2023-03-06T02:04:20.247Z,81.70
2023-03-06T02:06:49.438Z,81.59
2023-03-06T02:09:17.510Z,81.30
2023-03-06T02:11:46.176Z,81.61
2023-03-06T02:14:17.033Z,81.99
2023-03-06T02:16:45.206Z,82.02
2023-03-06T02:19:26.690Z,82.40
2023-03-06T02:21:56.122Z,82.18
2023-03-06T02:24:33.269Z,82.44
2023-03-06T02:27:05.167Z,82.40
2023-03-06T02:29:33.047Z,82.24
2023-03-06T02:32:00.577Z,82.81
2023-03-06T02:34:50.847Z,81.95
2023-03-06T02:37:18.351Z,82.34
2023-03-06T02:39:49.441Z,82.26
2023-03-06T02:42:25.136Z,82.94
2023-03-06T02:44:54.481Z,82.83
2023-03-06T02:47:21.961Z,82.38
2023-03-06T02:49:49.416Z,82.45
2023-03-06T02:52:16.902Z,82.41
2023-03-06T02:54:44.366Z,82.62
2023-03-06T02:57:11.818Z,83.57
2023-03-06T02:59:40.605Z,83.21
2023-03-06T03:02:08.145Z,83.46
2023-03-06T03:04:35.778Z,82.32
2023-03-06T03:07:03.236Z,82.70
2023-03-06T03:09:36.590Z,83.43
2023-03-06T03:12:06.390Z,83.05
2023-03-06T03:14:34.192Z,83.21
2023-03-06T03:17:03.324Z,83.10
2023-03-06T03:19:30.812Z,82.64
2023-03-06T03:21:58.258Z,82.64
2023-03-06T03:24:26.305Z,83.54
2023-03-06T03:26:53.787Z,83.56
2023-03-06T03:29:21.509Z,83.38
2023-03-06T03:31:49.229Z,82.65
2023-03-06T03:34:18.835Z,82.35
2023-03-06T03:36:46.446Z,83.25
2023-03-06T03:39:14.001Z,82.55
2023-03-06T03:41:41.642Z,82.67
2023-03-06T03:44:09.299Z,82.70
2023-03-06T03:46:37.122Z,82.93
2023-03-06T03:49:04.959Z,82.54
2023-03-06T03:51:34.039Z,84.47
2023-03-06T03:54:01.375Z,84.52
2023-03-06T03:56:28.846Z,83.97
2023-03-06T03:58:56.706Z,88.61
2023-03-06T04:01:24.307Z,89.78
2023-03-06T04:03:51.752Z,85.18
2023-03-06T04:06:19.449Z,83.14
2023-03-06T04:08:48.298Z,83.28
2023-03-06T04:11:15.854Z,83.07
2023-03-06T04:13:43.370Z,84.32
2023-03-06T04:16:10.892Z,83.52
2023-03-06T04:18:38.397Z,85.92
2023-03-06T04:21:06.193Z,84.67
2023-03-06T04:23:33.898Z,83.95
2023-03-06T04:26:02.748Z,84.38
2023-03-06T04:28:30.217Z,84.38
2023-03-06T04:30:57.710Z,84.15
2023-03-06T04:33:25.190Z,84.99
2023-03-06T04:35:52.701Z,85.08
2023-03-06T04:38:20.158Z,85.47
2023-03-06T04:40:49.542Z,84.62
2023-03-06T04:43:18.374Z,85.30
2023-03-06T04:45:45.816Z,85.42
2023-03-06T04:48:15.123Z,84.35
2023-03-06T04:50:42.914Z,85.57
2023-03-06T04:53:10.911Z,83.93
2023-03-06T04:55:38.427Z,84.10
2023-03-06T04:58:05.891Z,84.56
2023-03-06T05:00:34.708Z,85.76
2023-03-06T05:03:02.904Z,85.40
2023-03-06T05:05:30.610Z,85.95
2023-03-06T05:07:58.370Z,84.42
2023-03-06T05:10:25.854Z,85.96
2023-03-06T05:12:53.322Z,85.96
2023-03-06T05:15:21.010Z,84.42
2023-03-06T05:17:49.946Z,85.02
2023-03-06T05:20:18.019Z,85.25
2023-03-06T05:22:45.619Z,83.91
2023-03-06T05:25:13.824Z,83.61
2023-03-06T05:27:41.774Z,84.54
2023-03-06T05:30:13.437Z,84.50
2023-03-06T05:32:40.982Z,84.13
2023-03-06T05:35:21.015Z,85.42
2023-03-06T05:37:48.567Z,84.04
2023-03-06T05:40:16.803Z,84.53
2023-03-06T05:42:44.464Z,84.25
2023-03-06T05:45:13.116Z,84.01
2023-03-06T05:47:40.612Z,84.73
2023-03-06T05:50:10.573Z,84.36
2023-03-06T05:52:39.374Z,83.91
2023-03-06T05:55:08.182Z,84.36
2023-03-06T05:57:35.622Z,84.29
2023-03-06T06:00:03.836Z,84.28
2023-03-06T06:02:31.390Z,85.25
2023-03-06T06:04:58.889Z,85.12
2023-03-06T06:07:27.712Z,84.83
2023-03-06T06:09:55.200Z,84.90
2023-03-06T06:12:22.607Z,84.74
2023-03-06T06:14:50.113Z,84.83
2023-03-06T06:17:17.598Z,83.99
2023-03-06T06:19:45.040Z,84.70
2023-03-06T06:22:12.955Z,85.30
2023-03-06T06:24:41.738Z,85.68
2023-03-06T06:27:09.615Z,84.52
2023-03-06T06:29:37.289Z,84.63
2023-03-06T06:32:04.867Z,84.43
2023-03-06T06:34:32.436Z,83.88
2023-03-06T06:36:59.866Z,86.08
2023-03-06T06:39:28.700Z,85.60
2023-03-06T06:42:15.458Z,85.02
2023-03-06T06:44:45.269Z,84.51
2023-03-06T06:47:28.162Z,85.10
2023-03-06T06:49:57.144Z,85.05
2023-03-06T06:52:25.160Z,85.09
2023-03-06T06:54:53.375Z,85.35
2023-03-06T06:57:22.354Z,85.43
2023-03-06T06:59:52.363Z,84.88
2023-03-06T07:02:21.177Z,85.11
2023-03-06T07:05:02.594Z,84.77
2023-03-06T07:07:31.025Z,85.47
2023-03-06T07:09:58.488Z,86.10
2023-03-06T07:12:27.398Z,85.44
2023-03-06T07:14:55.018Z,85.56
2023-03-06T07:17:22.496Z,85.50
2023-03-06T07:19:50.206Z,85.90
2023-03-06T07:22:17.642Z,85.12
2023-03-06T07:24:45.082Z,85.26
2023-03-06T07:27:12.558Z,84.75
2023-03-06T07:29:43.616Z,84.72
2023-03-06T07:32:11.394Z,85.38
2023-03-06T07:34:38.964Z,84.95
2023-03-06T07:37:06.477Z,84.78
2023-03-06T07:39:33.928Z,84.03
2023-03-06T07:42:01.401Z,85.68
2023-03-06T07:44:29.295Z,85.60
2023-03-06T07:46:58.159Z,85.21
2023-03-06T07:49:25.623Z,85.30
2023-03-06T07:51:53.047Z,85.34
2023-03-06T07:54:20.559Z,84.50
2023-03-06T07:56:51.156Z,85.10
2023-03-06T07:59:18.934Z,85.45
2023-03-06T08:01:46.502Z,84.81
2023-03-06T08:04:15.340Z,84.62
2023-03-06T08:06:42.897Z,84.42
2023-03-06T08:09:10.317Z,85.14
2023-03-06T08:11:37.751Z,84.52
2023-03-06T08:14:05.281Z,84.48
2023-03-06T08:16:32.795Z,83.95
2023-03-06T08:19:00.339Z,83.90
2023-03-06T08:21:29.847Z,83.44
2023-03-06T08:23:57.750Z,84.12
2023-03-06T08:26:27.110Z,83.60
2023-03-06T08:28:55.622Z,83.56
2023-03-06T08:31:28.207Z,83.69
2023-03-06T08:33:56.120Z,83.43
2023-03-06T08:36:23.862Z,83.42
2023-03-06T08:38:52.840Z,83.87
2023-03-06T08:41:20.655Z,83.12
2023-03-06T08:43:48.263Z,82.29
2023-03-06T08:46:15.759Z,82.43
2023-03-06T08:48:43.280Z,82.56
2023-03-06T08:51:11.551Z,82.21
2023-03-06T08:53:43.998Z,82.53
2023-03-06T08:56:18.294Z,81.48
2023-03-06T08:58:45.840Z,82.48
2023-03-06T09:01:15.034Z,81.77
2023-03-06T09:03:42.677Z,81.69
2023-03-06T09:06:10.382Z,82.13
2023-03-06T09:08:38.288Z,81.53
2023-03-06T09:11:06.017Z,80.86
2023-03-06T09:13:34.823Z,81.04
2023-03-06T09:16:02.312Z,80.63
2023-03-06T09:18:30.105Z,79.80
2023-03-06T09:20:57.703Z,80.68
2023-03-06T09:23:25.183Z,80.36
2023-03-06T09:25:53.522Z,79.74
2023-03-06T09:28:21.701Z,78.69
2023-03-06T09:30:50.938Z,78.45
2023-03-06T09:33:19.547Z,78.47
2023-03-06T09:35:50.822Z,78.38
2023-03-06T09:38:18.679Z,78.04
2023-03-06T09:41:01.105Z,78.77
2023-03-06T09:43:31.876Z,78.35
2023-03-06T09:46:00.700Z,77.37
2023-03-06T09:48:40.748Z,78.67
2023-03-06T09:51:14.702Z,79.08
2023-03-06T09:53:58.720Z,78.87
2023-03-06T09:56:31.708Z,78.71
2023-03-06T09:59:07.353Z,79.29
2023-03-06T10:01:40.996Z,79.81
2023-03-06T10:04:18.715Z,80.49
2023-03-06T10:06:49.326Z,79.90
2023-03-06T10:09:21.636Z,80.61
2023-03-06T10:11:55.804Z,79.98
2023-03-06T10:14:30.178Z,80.19
2023-03-06T10:16:59.485Z,79.99
2023-03-06T10:19:33.974Z,81.34
2023-03-06T10:22:05.198Z,80.50
2023-03-06T10:24:50.126Z,80.89
2023-03-06T10:27:31.550Z,80.47
2023-03-06T10:30:04.364Z,81.21
2023-03-06T10:32:49.104Z,81.52
2023-03-06T10:35:19.545Z,82.43
2023-03-06T10:37:47.472Z,83.21
2023-03-06T10:40:19.645Z,83.22
2023-03-06T10:42:47.119Z,82.35
2023-03-06T10:45:16.479Z,82.27
2023-03-06T10:47:46.040Z,81.55
2023-03-06T10:50:25.032Z,81.34
2023-03-06T10:53:04.874Z,80.76
2023-03-06T10:55:34.422Z,80.61
2023-03-06T10:58:17.640Z,80.80
2023-03-06T11:00:45.111Z,81.23
2023-03-06T11:03:19.349Z,80.82
2023-03-06T11:05:56.506Z,80.67
2023-03-06T11:08:24.866Z,81.01
2023-03-06T11:11:00.858Z,79.75
2023-03-06T11:13:30.536Z,79.38
2023-03-06T11:16:04.179Z,79.90
2023-03-06T11:18:38.480Z,77.67
2023-03-06T11:21:24.155Z,78.76
2023-03-06T11:23:52.862Z,79.24
2023-03-06T11:26:32.452Z,79.43
2023-03-06T11:29:20.766Z,80.17
2023-03-06T11:31:52.647Z,80.17
2023-03-06T11:34:29.523Z,81.58
2023-03-06T11:37:02.320Z,81.72
2023-03-06T11:39:36.525Z,81.49
2023-03-06T11:42:11.046Z,81.40
2023-03-06T11:44:50.405Z,80.84
2023-03-06T11:47:23.972Z,81.45
2023-03-06T11:50:01.048Z,80.52
2023-03-06T11:52:38.039Z,80.52
2023-03-06T11:55:05.795Z,80.67
2023-03-06T11:57:42.599Z,80.63
2023-03-06T12:00:23.195Z,81.41
2023-03-06T12:03:23.059Z,79.86
2023-03-06T12:05:59.934Z,79.13
2023-03-06T12:08:49.883Z,79.04
2023-03-06T12:11:21.404Z,78.73
2023-03-06T12:14:03.990Z,77.95
2023-03-06T12:16:53.894Z,76.86
2023-03-06T12:19:33.533Z,76.94
2023-03-06T12:22:21.537Z,76.83
2023-03-06T12:25:02.243Z,75.06
2023-03-06T12:27:39.333Z,74.78
2023-03-06T12:30:34.523Z,75.68
2023-03-06T12:33:15.743Z,75.81
2023-03-06T12:35:51.100Z,75.37
2023-03-06T12:38:43.981Z,74.74
2023-03-06T12:41:25.181Z,74.75
2023-03-06T12:44:13.470Z,75.99
2023-03-06T12:46:47.110Z,75.56
2023-03-06T12:49:31.532Z,75.23
2023-03-06T12:52:01.689Z,75.87
2023-03-06T12:54:31.479Z,75.54
2023-03-06T12:57:01.157Z,75.38
2023-03-06T12:59:44.415Z,76.85
2023-03-06T13:02:40.127Z,77.11
2023-03-06T13:05:27.033Z,78.48
2023-03-06T13:08:15.525Z,78.50
2023-03-06T13:10:48.095Z,77.81
2023-03-06T13:13:32.664Z,77.17
2023-03-06T13:16:13.016Z,75.95
2023-03-06T13:19:11.176Z,76.58
2023-03-06T13:22:02.260Z,76.97
2023-03-06T13:24:32.720Z,76.42
2023-03-06T13:27:04.423Z,75.92
2023-03-06T13:30:19.352Z,74.50
2023-03-06T13:32:46.851Z,74.68
2023-03-06T13:35:55.109Z,72.33
2023-03-06T13:38:51.800Z,73.80
2023-03-06T13:41:42.675Z,74.11
2023-03-06T13:44:49.524Z,74.50
2023-03-06T13:48:01.420Z,73.39
2023-03-06T13:50:37.631Z,72.50
2023-03-06T13:53:38.204Z,72.02
2023-03-06T13:56:46.440Z,72.74
2023-03-06T13:59:30.756Z,72.81
2023-03-06T14:02:12.343Z,71.89
2023-03-06T14:04:54.302Z,71.36
2023-03-06T14:07:30.031Z,71.96
2023-03-06T14:10:21.567Z,70.97
2023-03-06T14:13:16.105Z,69.71
2023-03-06T14:15:46.672Z,71.64
2023-03-06T14:18:19.274Z,72.42
2023-03-06T14:20:52.287Z,72.02
2023-03-06T14:23:29.027Z,72.35
2023-03-06T14:26:01.477Z,73.66
2023-03-06T14:28:30.384Z,74.46
2023-03-06T14:30:58.423Z,74.72
2023-03-06T14:33:33.375Z,75.35
2023-03-06T14:36:08.075Z,75.30
2023-03-06T14:38:38.893Z,75.06
2023-03-06T14:41:07.157Z,75.58
2023-03-06T14:43:34.972Z,75.41
2023-03-06T14:46:04.854Z,75.03
2023-03-06T14:48:41.699Z,75.57
2023-03-06T14:51:16.644Z,74.53
2023-03-06T14:53:46.249Z,73.06
2023-03-06T14:56:17.886Z,74.22
2023-03-06T14:58:52.473Z,73.74
2023-03-06T15:01:28.158Z,73.93
2023-03-06T15:03:59.862Z,74.32
2023-03-06T15:06:34.308Z,72.00
2023-03-06T15:09:07.747Z,73.36
2023-03-06T15:11:58.504Z,72.83
2023-03-06T15:14:35.490Z,72.88
2023-03-06T15:17:23.043Z,72.06
2023-03-06T15:19:54.119Z,72.72
2023-03-06T15:22:32.718Z,71.85
2023-03-06T15:25:20.731Z,73.08
2023-03-06T15:27:49.857Z,73.39
2023-03-06T15:30:24.447Z,72.62
2023-03-06T15:32:52.180Z,72.42
2023-03-06T15:35:27.424Z,73.31
2023-03-06T15:37:56.573Z,72.96
2023-03-06T15:40:25.844Z,73.73
2023-03-06T15:42:53.435Z,73.96
2023-03-06T15:45:23.079Z,73.93
2023-03-06T15:47:52.648Z,73.89
2023-03-06T15:50:22.568Z,74.90
2023-03-06T15:52:50.832Z,75.53
2023-03-06T15:55:22.167Z,76.43
2023-03-06T15:57:52.372Z,75.87
2023-03-06T16:00:27.741Z,77.98
2023-03-06T16:02:55.877Z,78.28
2023-03-06T16:05:23.878Z,78.84
2023-03-06T16:07:51.685Z,78.35
2023-03-06T16:10:23.427Z,78.22
2023-03-06T16:12:52.626Z,78.37
2023-03-06T16:15:22.186Z,79.19
2023-03-06T16:17:50.350Z,78.95
2023-03-06T16:20:20.954Z,78.81
2023-03-06T16:22:49.669Z,78.35
2023-03-06T16:25:19.504Z,79.67
2023-03-06T16:27:55.265Z,78.65
2023-03-06T16:30:24.186Z,78.99
2023-03-06T16:32:51.644Z,78.82
2023-03-06T16:35:19.553Z,78.60
2023-03-06T16:37:47.921Z,79.92
2023-03-06T16:40:19.999Z,79.75
2023-03-06T16:42:49.452Z,79.63
2023-03-06T16:45:18.974Z,80.19
2023-03-06T16:47:47.921Z,80.37
2023-03-06T16:50:21.852Z,80.81
2023-03-06T16:52:49.303Z,80.13
2023-03-06T16:55:16.933Z,79.89
2023-03-06T16:57:44.653Z,80.07
2023-03-06T17:00:15.712Z,79.92
2023-03-06T17:02:43.818Z,80.55
2023-03-06T17:05:12.795Z,81.17
2023-03-06T17:07:40.946Z,80.15
2023-03-06T17:10:11.228Z,80.98
2023-03-06T17:12:39.133Z,80.30
2023-03-06T17:15:08.043Z,80.53
2023-03-06T17:17:36.909Z,80.49
2023-03-06T17:20:06.947Z,80.65
2023-03-06T17:22:35.601Z,80.47
2023-03-06T17:25:03.588Z,80.19
2023-03-06T17:27:31.099Z,80.46
2023-03-06T17:29:58.818Z,80.40
2023-03-06T17:32:27.230Z,79.86
2023-03-06T17:34:56.045Z,79.87
2023-03-06T17:37:23.497Z,79.21
2023-03-06T17:39:51.614Z,80.36
2023-03-06T17:42:19.136Z,80.59
2023-03-06T17:44:47.812Z,79.98
2023-03-06T17:47:15.268Z,80.09
2023-03-06T17:49:42.721Z,80.30
2023-03-06T17:52:12.048Z,81.23
2023-03-06T17:54:39.526Z,80.30
2023-03-06T17:57:06.970Z,80.23
2023-03-06T17:59:35.095Z,79.92
2023-03-06T18:02:03.298Z,80.55
2023-03-06T18:04:31.082Z,81.38
2023-03-06T18:06:58.586Z,81.99
2023-03-06T18:09:27.440Z,81.76
2023-03-06T18:11:54.871Z,82.19
2023-03-06T18:14:22.354Z,82.72
2023-03-06T18:16:49.957Z,83.01
2023-03-06T18:19:17.584Z,83.48
2023-03-06T18:21:47.155Z,82.97
2023-03-06T18:24:14.631Z,82.59
2023-03-06T18:26:43.425Z,82.88
2023-03-06T18:29:11.017Z,83.00
2023-03-06T18:31:40.310Z,83.18
2023-03-06T18:34:09.648Z,83.19
2023-03-06T18:36:37.883Z,84.14
2023-03-06T18:39:08.525Z,84.33
2023-03-06T18:41:36.818Z,83.64
2023-03-06T18:44:06.530Z,83.34
2023-03-06T18:46:36.844Z,85.05
2023-03-06T18:49:05.019Z,85.37
2023-03-06T18:51:32.613Z,83.28
2023-03-06T18:54:02.072Z,82.06
2023-03-06T18:56:29.721Z,84.20
2023-03-06T18:58:57.473Z,82.60
2023-03-06T19:01:27.158Z,82.46
2023-03-06T19:03:54.681Z,82.09
2023-03-06T19:06:22.191Z,82.63
2023-03-06T19:08:49.642Z,83.74
2023-03-06T19:11:18.278Z,83.98
2023-03-06T19:13:45.925Z,83.91
2023-03-06T19:16:18.485Z,83.92
2023-03-06T19:18:47.311Z,83.68
2023-03-06T19:21:16.388Z,83.69
2023-03-06T19:23:43.883Z,83.68
2023-03-06T19:26:11.882Z,84.33
2023-03-06T19:28:41.538Z,84.47
2023-03-06T19:31:11.203Z,83.64
2023-03-06T19:33:39.115Z,84.65
2023-03-06T19:36:10.717Z,83.55
2023-03-06T19:38:38.218Z,83.66
2023-03-06T19:41:11.598Z,82.59
2023-03-06T19:43:39.264Z,83.52
2023-03-06T19:46:06.838Z,83.35
2023-03-06T19:48:34.322Z,83.42
2023-03-06T19:51:05.486Z,83.89
2023-03-06T19:53:35.079Z,84.40
2023-03-06T19:56:06.636Z,83.75
2023-03-06T19:58:34.570Z,83.09
2023-03-06T20:01:07.021Z,82.41
2023-03-06T20:03:34.523Z,82.63
2023-03-06T20:06:02.855Z,82.99
2023-03-06T20:08:30.403Z,83.40
2023-03-06T20:10:59.216Z,84.27
2023-03-06T20:13:26.692Z,83.17
2023-03-06T20:15:54.324Z,82.64
2023-03-06T20:18:21.897Z,83.98
2023-03-06T20:20:58.434Z,83.27
2023-03-06T20:23:26.034Z,83.01
2023-03-06T20:25:53.759Z,82.23
2023-03-06T20:28:22.647Z,83.04
2023-03-06T20:30:50.391Z,84.15
2023-03-06T20:33:19.478Z,83.18
2023-03-06T20:35:46.979Z,82.85
2023-03-06T20:38:14.555Z,83.32
2023-03-06T20:40:43.401Z,82.96
2023-03-06T20:43:11.011Z,84.06
2023-03-06T20:45:39.834Z,83.22
2023-03-06T20:48:07.581Z,84.13
2023-03-06T20:50:36.219Z,83.82
2023-03-06T20:53:03.696Z,83.85
2023-03-06T20:55:31.165Z,84.61
2023-03-06T20:57:58.620Z,84.00
2023-03-06T21:00:26.085Z,83.78
2023-03-06T21:02:54.995Z,85.50
2023-03-06T21:05:22.460Z,85.06
2023-03-06T21:07:50.006Z,84.77
2023-03-06T21:10:17.728Z,85.53
2023-03-06T21:12:45.191Z,84.50
2023-03-06T21:15:12.900Z,84.42
2023-03-06T21:17:40.395Z,83.30
2023-03-06T21:20:10.799Z,84.63
2023-03-06T21:22:38.515Z,84.52
2023-03-06T21:25:06.639Z,82.77
2023-03-06T21:27:34.087Z,82.34
2023-03-06T21:30:01.518Z,81.65
2023-03-06T21:32:30.009Z,81.97
2023-03-06T21:34:57.520Z,81.25
2023-03-06T21:37:26.352Z,81.54
2023-03-06T21:39:53.857Z,81.59
2023-03-06T21:42:21.307Z,81.04
2023-03-06T21:44:48.819Z,81.19
2023-03-06T21:47:16.303Z,81.20
2023-03-06T21:49:43.766Z,81.02
2023-03-06T21:52:11.219Z,80.18
2023-03-06T21:54:40.012Z,80.13
2023-03-06T21:57:07.470Z,80.27
2023-03-06T21:59:34.922Z,80.06
2023-03-06T22:02:02.403Z,80.17
2023-03-06T22:04:29.952Z,80.06
2023-03-06T22:06:57.441Z,80.28
2023-03-06T22:09:24.873Z,79.47
2023-03-06T22:11:53.736Z,79.69
2023-03-06T22:14:21.196Z,79.44
2023-03-06T22:16:48.750Z,79.50
2023-03-06T22:19:16.231Z,80.11
2023-03-06T22:21:43.676Z,79.93
2023-03-06T22:24:11.131Z,79.53
2023-03-06T22:26:38.570Z,79.53
2023-03-06T22:29:07.367Z,79.63
2023-03-06T22:31:34.996Z,80.03
2023-03-06T22:34:02.554Z,79.87
2023-03-06T22:36:31.467Z,79.82
2023-03-06T22:39:01.006Z,80.66
2023-03-06T22:41:28.520Z,80.37
2023-03-06T22:43:56.752Z,80.10
2023-03-06T22:46:26.567Z,79.73
2023-03-06T22:48:56.048Z,79.21
2023-03-06T22:51:23.504Z,79.59
2023-03-06T22:53:51.272Z,80.38
2023-03-06T22:56:20.502Z,80.13
2023-03-06T22:58:48.799Z,79.45
2023-03-06T23:01:18.267Z,79.74
2023-03-06T23:03:49.983Z,79.05
2023-03-06T23:06:19.231Z,80.04
2023-03-06T23:08:50.857Z,81.07
2023-03-06T23:11:19.422Z,79.72
2023-03-06T23:13:47.247Z,79.69
2023-03-06T23:16:14.980Z,80.22
2023-03-06T23:18:42.909Z,80.12
2023-03-06T23:21:13.396Z,80.45
2023-03-06T23:23:41.314Z,80.25
2023-03-06T23:26:09.688Z,80.10
2023-03-06T23:28:37.210Z,79.94
2023-03-06T23:31:07.670Z,80.91
2023-03-06T23:33:35.271Z,81.08
2023-03-06T23:36:03.198Z,80.27
2023-03-06T23:38:32.242Z,81.21
2023-03-06T23:41:02.151Z,80.73
2023-03-06T23:43:29.830Z,80.86
2023-03-06T23:45:57.717Z,81.34
2023-03-06T23:48:26.746Z,81.34
2023-03-06T23:50:54.326Z,81.48
2023-03-06T23:53:22.300Z,81.10
2023-03-06T23:55:51.780Z,80.78
2023-03-06T23:58:20.310Z,81.44
